sensor_id;sensor_type;location;lat;lon;timestamp;P1;durP1;ratioP1;P2;durP2;ratioP2
66425;SDS011;53237;46.158;14.604;2023-01-19T00:02:19;27.38;;;23.88;;
66425;SDS011;53237;46.158;14.604;2023-01-19T00:04:45;29.00;;;24.20;;
66425;SDS011;53237;46.158;14.604;2023-01-19T00:07:11;30.88;;;24.83;;
66425;SDS011;53237;46.158;14.604;2023-01-19T00:09:37;25.48;;;21.77;;
66425;SDS011;53237;46.158;14.604;2023-01-19T00:12:03;28.67;;;23.50;;
66425;SDS011;53237;46.158;14.604;2023-01-19T00:14:30;25.58;;;22.45;;
66425;SDS011;53237;46.158;14.604;2023-01-19T00:16:56;26.88;;;23.13;;
66425;SDS011;53237;46.158;14.604;2023-01-19T00:19:22;27.48;;;23.95;;
66425;SDS011;53237;46.158;14.604;2023-01-19T00:21:48;27.38;;;23.02;;
66425;SDS011;53237;46.158;14.604;2023-01-19T00:24:14;30.75;;;23.98;;
66425;SDS011;53237;46.158;14.604;2023-01-19T00:26:40;30.98;;;24.88;;
66425;SDS011;53237;46.158;14.604;2023-01-19T00:29:07;27.92;;;23.55;;
66425;SDS011;53237;46.158;14.604;2023-01-19T00:31:33;29.33;;;24.38;;
66425;SDS011;53237;46.158;14.604;2023-01-19T00:33:59;28.25;;;23.30;;
66425;SDS011;53237;46.158;14.604;2023-01-19T00:36:26;28.77;;;24.02;;
66425;SDS011;53237;46.158;14.604;2023-01-19T00:38:52;29.27;;;25.45;;
66425;SDS011;53237;46.158;14.604;2023-01-19T00:41:18;28.05;;;23.88;;
66425;SDS011;53237;46.158;14.604;2023-01-19T00:44:04;27.33;;;23.45;;
66425;SDS011;53237;46.158;14.604;2023-01-19T00:46:30;31.80;;;25.67;;
66425;SDS011;53237;46.158;14.604;2023-01-19T00:48:56;28.35;;;23.85;;
66425;SDS011;53237;46.158;14.604;2023-01-19T00:51:22;34.88;;;29.50;;
66425;SDS011;53237;46.158;14.604;2023-01-19T00:53:48;38.03;;;30.33;;
66425;SDS011;53237;46.158;14.604;2023-01-19T00:56:14;28.52;;;24.42;;
66425;SDS011;53237;46.158;14.604;2023-01-19T00:58:39;29.17;;;25.73;;
66425;SDS011;53237;46.158;14.604;2023-01-19T01:01:05;26.17;;;22.13;;
66425;SDS011;53237;46.158;14.604;2023-01-19T01:03:31;25.85;;;22.63;;
66425;SDS011;53237;46.158;14.604;2023-01-19T01:05:58;27.83;;;24.08;;
66425;SDS011;53237;46.158;14.604;2023-01-19T01:08:24;25.92;;;22.08;;
66425;SDS011;53237;46.158;14.604;2023-01-19T01:10:50;28.63;;;24.83;;
66425;SDS011;53237;46.158;14.604;2023-01-19T01:13:16;25.48;;;22.67;;
66425;SDS011;53237;46.158;14.604;2023-01-19T01:15:42;23.58;;;21.00;;
66425;SDS011;53237;46.158;14.604;2023-01-19T01:18:08;24.77;;;21.92;;
66425;SDS011;53237;46.158;14.604;2023-01-19T01:20:34;24.05;;;21.27;;
66425;SDS011;53237;46.158;14.604;2023-01-19T01:23:00;29.83;;;25.70;;
66425;SDS011;53237;46.158;14.604;2023-01-19T01:25:27;29.02;;;25.00;;
66425;SDS011;53237;46.158;14.604;2023-01-19T01:27:54;26.58;;;22.88;;
66425;SDS011;53237;46.158;14.604;2023-01-19T01:30:21;27.33;;;24.13;;
66425;SDS011;53237;46.158;14.604;2023-01-19T01:32:47;30.20;;;25.27;;
66425;SDS011;53237;46.158;14.604;2023-01-19T01:35:13;28.63;;;25.13;;
66425;SDS011;53237;46.158;14.604;2023-01-19T01:37:40;30.75;;;25.13;;
66425;SDS011;53237;46.158;14.604;2023-01-19T01:40:10;25.67;;;22.98;;
66425;SDS011;53237;46.158;14.604;2023-01-19T01:42:37;32.97;;;26.40;;
66425;SDS011;53237;46.158;14.604;2023-01-19T01:45:06;28.73;;;23.92;;
66425;SDS011;53237;46.158;14.604;2023-01-19T01:47:43;22.50;;;19.80;;
66425;SDS011;53237;46.158;14.604;2023-01-19T01:50:14;23.92;;;21.27;;
66425;SDS011;53237;46.158;14.604;2023-01-19T01:52:43;30.92;;;25.75;;
66425;SDS011;53237;46.158;14.604;2023-01-19T01:55:10;23.33;;;20.60;;
66425;SDS011;53237;46.158;14.604;2023-01-19T01:57:41;22.65;;;19.13;;
66425;SDS011;53237;46.158;14.604;2023-01-19T02:00:08;21.90;;;19.45;;
66425;SDS011;53237;46.158;14.604;2023-01-19T02:02:35;23.88;;;20.27;;
66425;SDS011;53237;46.158;14.604;2023-01-19T02:05:22;24.35;;;20.15;;
66425;SDS011;53237;46.158;14.604;2023-01-19T02:07:56;22.40;;;19.73;;
66425;SDS011;53237;46.158;14.604;2023-01-19T02:10:43;24.50;;;20.70;;
66425;SDS011;53237;46.158;14.604;2023-01-19T02:13:29;22.48;;;19.38;;
66425;SDS011;53237;46.158;14.604;2023-01-19T02:15:56;21.80;;;19.27;;
66425;SDS011;53237;46.158;14.604;2023-01-19T02:18:26;21.10;;;18.75;;
66425;SDS011;53237;46.158;14.604;2023-01-19T02:23:25;19.60;;;17.50;;
66425;SDS011;53237;46.158;14.604;2023-01-19T02:25:52;20.17;;;17.83;;
66425;SDS011;53237;46.158;14.604;2023-01-19T02:28:18;22.10;;;18.73;;
66425;SDS011;53237;46.158;14.604;2023-01-19T02:30:44;21.45;;;19.00;;
66425;SDS011;53237;46.158;14.604;2023-01-19T02:33:10;20.75;;;18.55;;
66425;SDS011;53237;46.158;14.604;2023-01-19T02:35:36;21.15;;;18.85;;
66425;SDS011;53237;46.158;14.604;2023-01-19T02:38:02;20.83;;;18.63;;
66425;SDS011;53237;46.158;14.604;2023-01-19T02:40:28;22.50;;;19.63;;
66425;SDS011;53237;46.158;14.604;2023-01-19T02:42:55;20.38;;;18.17;;
66425;SDS011;53237;46.158;14.604;2023-01-19T02:45:24;21.65;;;19.27;;
66425;SDS011;53237;46.158;14.604;2023-01-19T02:47:50;22.08;;;19.40;;
66425;SDS011;53237;46.158;14.604;2023-01-19T02:55:36;20.67;;;18.50;;
66425;SDS011;53237;46.158;14.604;2023-01-19T03:03:26;22.17;;;19.80;;
66425;SDS011;53237;46.158;14.604;2023-01-19T03:06:06;20.40;;;17.55;;
66425;SDS011;53237;46.158;14.604;2023-01-19T03:11:03;22.20;;;19.80;;
66425;SDS011;53237;46.158;14.604;2023-01-19T03:13:50;20.20;;;17.70;;
66425;SDS011;53237;46.158;14.604;2023-01-19T03:18:54;22.73;;;20.13;;
66425;SDS011;53237;46.158;14.604;2023-01-19T03:21:25;19.05;;;17.05;;
66425;SDS011;53237;46.158;14.604;2023-01-19T03:23:51;22.77;;;18.85;;
66425;SDS011;53237;46.158;14.604;2023-01-19T03:26:23;21.35;;;18.95;;
66425;SDS011;53237;46.158;14.604;2023-01-19T03:28:50;20.35;;;18.20;;
66425;SDS011;53237;46.158;14.604;2023-01-19T03:31:18;20.90;;;18.63;;
66425;SDS011;53237;46.158;14.604;2023-01-19T03:33:46;19.90;;;17.80;;
66425;SDS011;53237;46.158;14.604;2023-01-19T03:36:15;20.13;;;17.95;;
66425;SDS011;53237;46.158;14.604;2023-01-19T03:38:43;18.92;;;16.95;;
66425;SDS011;53237;46.158;14.604;2023-01-19T03:41:12;22.05;;;18.80;;
66425;SDS011;53237;46.158;14.604;2023-01-19T03:43:40;20.90;;;18.65;;
66425;SDS011;53237;46.158;14.604;2023-01-19T03:46:07;21.08;;;18.85;;
66425;SDS011;53237;46.158;14.604;2023-01-19T03:48:34;21.05;;;17.77;;
66425;SDS011;53237;46.158;14.604;2023-01-19T03:51:02;21.77;;;18.50;;
66425;SDS011;53237;46.158;14.604;2023-01-19T03:53:28;19.10;;;17.05;;
66425;SDS011;53237;46.158;14.604;2023-01-19T03:55:54;19.55;;;17.55;;
66425;SDS011;53237;46.158;14.604;2023-01-19T03:58:21;30.58;;;25.25;;
66425;SDS011;53237;46.158;14.604;2023-01-19T04:00:47;36.35;;;29.08;;
66425;SDS011;53237;46.158;14.604;2023-01-19T04:03:13;36.65;;;28.50;;
66425;SDS011;53237;46.158;14.604;2023-01-19T04:05:39;35.72;;;30.05;;
66425;SDS011;53237;46.158;14.604;2023-01-19T04:08:06;26.48;;;23.13;;
66425;SDS011;53237;46.158;14.604;2023-01-19T04:10:32;22.17;;;19.63;;
66425;SDS011;53237;46.158;14.604;2023-01-19T04:12:58;24.52;;;20.75;;
66425;SDS011;53237;46.158;14.604;2023-01-19T04:15:24;22.35;;;19.52;;
66425;SDS011;53237;46.158;14.604;2023-01-19T04:17:51;22.15;;;19.65;;
66425;SDS011;53237;46.158;14.604;2023-01-19T04:20:17;23.50;;;19.83;;
66425;SDS011;53237;46.158;14.604;2023-01-19T04:22:43;22.75;;;20.27;;
66425;SDS011;53237;46.158;14.604;2023-01-19T04:25:09;23.83;;;19.75;;
66425;SDS011;53237;46.158;14.604;2023-01-19T04:27:35;22.83;;;19.10;;
66425;SDS011;53237;46.158;14.604;2023-01-19T04:30:02;22.83;;;19.88;;
66425;SDS011;53237;46.158;14.604;2023-01-19T04:32:29;22.85;;;19.92;;
66425;SDS011;53237;46.158;14.604;2023-01-19T04:34:55;24.08;;;20.17;;
66425;SDS011;53237;46.158;14.604;2023-01-19T04:37:21;23.48;;;20.02;;
66425;SDS011;53237;46.158;14.604;2023-01-19T04:39:47;22.55;;;19.83;;
66425;SDS011;53237;46.158;14.604;2023-01-19T04:42:12;22.27;;;19.88;;
66425;SDS011;53237;46.158;14.604;2023-01-19T04:44:39;24.23;;;21.50;;
66425;SDS011;53237;46.158;14.604;2023-01-19T04:47:05;23.10;;;20.45;;
66425;SDS011;53237;46.158;14.604;2023-01-19T04:49:31;23.52;;;20.25;;
66425;SDS011;53237;46.158;14.604;2023-01-19T04:51:57;23.45;;;20.48;;
66425;SDS011;53237;46.158;14.604;2023-01-19T04:54:23;23.73;;;21.15;;
66425;SDS011;53237;46.158;14.604;2023-01-19T04:56:49;23.27;;;20.23;;
66425;SDS011;53237;46.158;14.604;2023-01-19T04:59:15;21.83;;;19.48;;
66425;SDS011;53237;46.158;14.604;2023-01-19T05:01:41;23.40;;;20.52;;
66425;SDS011;53237;46.158;14.604;2023-01-19T05:04:07;26.73;;;22.48;;
66425;SDS011;53237;46.158;14.604;2023-01-19T05:06:33;23.58;;;20.55;;
66425;SDS011;53237;46.158;14.604;2023-01-19T05:08:59;26.55;;;22.38;;
66425;SDS011;53237;46.158;14.604;2023-01-19T05:11:25;24.75;;;20.77;;
66425;SDS011;53237;46.158;14.604;2023-01-19T05:13:51;25.95;;;22.15;;
66425;SDS011;53237;46.158;14.604;2023-01-19T05:16:17;24.52;;;21.92;;
66425;SDS011;53237;46.158;14.604;2023-01-19T05:18:43;34.80;;;28.73;;
66425;SDS011;53237;46.158;14.604;2023-01-19T05:21:09;38.88;;;30.70;;
66425;SDS011;53237;46.158;14.604;2023-01-19T05:23:35;35.13;;;27.27;;
66425;SDS011;53237;46.158;14.604;2023-01-19T05:26:01;38.25;;;30.30;;
66425;SDS011;53237;46.158;14.604;2023-01-19T05:28:28;28.80;;;24.83;;
66425;SDS011;53237;46.158;14.604;2023-01-19T05:30:54;32.28;;;26.05;;
66425;SDS011;53237;46.158;14.604;2023-01-19T05:33:20;27.05;;;22.27;;
66425;SDS011;53237;46.158;14.604;2023-01-19T05:35:52;26.33;;;21.92;;
66425;SDS011;53237;46.158;14.604;2023-01-19T05:40:44;26.65;;;22.58;;
66425;SDS011;53237;46.158;14.604;2023-01-19T05:43:11;26.08;;;21.67;;
66425;SDS011;53237;46.158;14.604;2023-01-19T05:45:37;26.92;;;21.10;;
66425;SDS011;53237;46.158;14.604;2023-01-19T05:48:03;25.58;;;21.67;;
66425;SDS011;53237;46.158;14.604;2023-01-19T05:50:30;28.73;;;24.15;;
66425;SDS011;53237;46.158;14.604;2023-01-19T05:52:56;34.15;;;28.27;;
66425;SDS011;53237;46.158;14.604;2023-01-19T05:55:22;28.08;;;22.83;;
66425;SDS011;53237;46.158;14.604;2023-01-19T05:57:48;26.80;;;23.00;;
66425;SDS011;53237;46.158;14.604;2023-01-19T06:00:14;26.42;;;22.33;;
66425;SDS011;53237;46.158;14.604;2023-01-19T06:02:40;27.63;;;22.88;;
66425;SDS011;53237;46.158;14.604;2023-01-19T06:05:06;26.50;;;22.45;;
66425;SDS011;53237;46.158;14.604;2023-01-19T06:07:32;26.02;;;22.67;;
66425;SDS011;53237;46.158;14.604;2023-01-19T06:09:58;27.50;;;23.25;;
66425;SDS011;53237;46.158;14.604;2023-01-19T06:12:24;26.77;;;22.45;;
66425;SDS011;53237;46.158;14.604;2023-01-19T06:14:50;27.55;;;23.52;;
66425;SDS011;53237;46.158;14.604;2023-01-19T06:17:16;27.60;;;23.75;;
66425;SDS011;53237;46.158;14.604;2023-01-19T06:19:43;26.52;;;23.10;;
66425;SDS011;53237;46.158;14.604;2023-01-19T06:22:09;28.10;;;23.23;;
66425;SDS011;53237;46.158;14.604;2023-01-19T06:24:35;27.02;;;22.40;;
66425;SDS011;53237;46.158;14.604;2023-01-19T06:27:01;28.17;;;24.10;;
66425;SDS011;53237;46.158;14.604;2023-01-19T06:29:26;27.77;;;22.85;;
66425;SDS011;53237;46.158;14.604;2023-01-19T06:31:53;25.15;;;21.42;;
66425;SDS011;53237;46.158;14.604;2023-01-19T06:34:19;26.85;;;22.52;;
66425;SDS011;53237;46.158;14.604;2023-01-19T06:36:45;28.20;;;23.48;;
66425;SDS011;53237;46.158;14.604;2023-01-19T06:39:11;26.42;;;22.63;;
66425;SDS011;53237;46.158;14.604;2023-01-19T06:41:37;28.50;;;24.90;;
66425;SDS011;53237;46.158;14.604;2023-01-19T06:44:04;26.50;;;23.20;;
66425;SDS011;53237;46.158;14.604;2023-01-19T06:46:31;28.50;;;23.63;;
66425;SDS011;53237;46.158;14.604;2023-01-19T06:48:57;28.83;;;25.70;;
66425;SDS011;53237;46.158;14.604;2023-01-19T06:51:22;27.92;;;23.88;;
66425;SDS011;53237;46.158;14.604;2023-01-19T06:53:49;28.85;;;24.25;;
66425;SDS011;53237;46.158;14.604;2023-01-19T06:56:15;28.52;;;23.33;;
66425;SDS011;53237;46.158;14.604;2023-01-19T06:58:41;30.48;;;25.35;;
66425;SDS011;53237;46.158;14.604;2023-01-19T07:01:07;27.63;;;23.38;;
66425;SDS011;53237;46.158;14.604;2023-01-19T07:03:33;26.92;;;23.58;;
66425;SDS011;53237;46.158;14.604;2023-01-19T07:06:01;28.85;;;24.95;;
66425;SDS011;53237;46.158;14.604;2023-01-19T07:08:27;27.65;;;24.58;;
66425;SDS011;53237;46.158;14.604;2023-01-19T07:11:03;27.25;;;24.17;;
66425;SDS011;53237;46.158;14.604;2023-01-19T07:13:30;25.88;;;22.92;;
66425;SDS011;53237;46.158;14.604;2023-01-19T07:15:57;27.65;;;22.98;;
66425;SDS011;53237;46.158;14.604;2023-01-19T07:18:23;26.27;;;22.27;;
66425;SDS011;53237;46.158;14.604;2023-01-19T07:20:49;27.17;;;24.23;;
66425;SDS011;53237;46.158;14.604;2023-01-19T07:23:15;25.80;;;21.88;;
66425;SDS011;53237;46.158;14.604;2023-01-19T07:25:44;27.02;;;22.05;;
66425;SDS011;53237;46.158;14.604;2023-01-19T07:28:11;23.45;;;20.95;;
66425;SDS011;53237;46.158;14.604;2023-01-19T07:30:43;29.95;;;26.05;;
66425;SDS011;53237;46.158;14.604;2023-01-19T07:33:10;25.67;;;22.90;;
66425;SDS011;53237;46.158;14.604;2023-01-19T07:35:36;24.55;;;21.95;;
66425;SDS011;53237;46.158;14.604;2023-01-19T07:38:02;23.95;;;21.13;;
66425;SDS011;53237;46.158;14.604;2023-01-19T07:40:28;24.23;;;21.05;;
66425;SDS011;53237;46.158;14.604;2023-01-19T07:42:54;23.30;;;20.75;;
66425;SDS011;53237;46.158;14.604;2023-01-19T07:45:20;23.92;;;21.35;;
66425;SDS011;53237;46.158;14.604;2023-01-19T07:47:47;24.58;;;21.98;;
66425;SDS011;53237;46.158;14.604;2023-01-19T07:50:14;23.55;;;21.00;;
66425;SDS011;53237;46.158;14.604;2023-01-19T07:52:40;22.90;;;20.42;;
66425;SDS011;53237;46.158;14.604;2023-01-19T07:55:06;22.25;;;19.95;;
66425;SDS011;53237;46.158;14.604;2023-01-19T07:57:33;22.80;;;19.98;;
66425;SDS011;53237;46.158;14.604;2023-01-19T07:59:59;23.17;;;19.77;;
66425;SDS011;53237;46.158;14.604;2023-01-19T08:02:25;23.75;;;20.35;;
66425;SDS011;53237;46.158;14.604;2023-01-19T08:04:51;21.90;;;19.55;;
66425;SDS011;53237;46.158;14.604;2023-01-19T08:07:17;23.58;;;20.63;;
66425;SDS011;53237;46.158;14.604;2023-01-19T08:09:43;23.20;;;20.70;;
66425;SDS011;53237;46.158;14.604;2023-01-19T08:12:09;23.40;;;20.85;;
66425;SDS011;53237;46.158;14.604;2023-01-19T08:14:35;23.52;;;20.35;;
66425;SDS011;53237;46.158;14.604;2023-01-19T08:17:01;24.40;;;21.80;;
66425;SDS011;53237;46.158;14.604;2023-01-19T08:19:28;25.85;;;23.05;;
66425;SDS011;53237;46.158;14.604;2023-01-19T08:21:54;27.35;;;24.35;;
66425;SDS011;53237;46.158;14.604;2023-01-19T08:24:21;24.92;;;22.27;;
66425;SDS011;53237;46.158;14.604;2023-01-19T08:26:49;25.00;;;22.35;;
66425;SDS011;53237;46.158;14.604;2023-01-19T08:29:15;26.60;;;23.88;;
66425;SDS011;53237;46.158;14.604;2023-01-19T08:31:41;28.13;;;25.15;;
66425;SDS011;53237;46.158;14.604;2023-01-19T08:34:07;28.08;;;23.48;;
66425;SDS011;53237;46.158;14.604;2023-01-19T08:36:33;26.67;;;23.30;;
66425;SDS011;53237;46.158;14.604;2023-01-19T08:38:59;25.70;;;22.55;;
66425;SDS011;53237;46.158;14.604;2023-01-19T08:41:25;24.65;;;21.85;;
66425;SDS011;53237;46.158;14.604;2023-01-19T08:43:51;24.92;;;21.80;;
66425;SDS011;53237;46.158;14.604;2023-01-19T08:46:17;23.50;;;21.00;;
66425;SDS011;53237;46.158;14.604;2023-01-19T08:48:45;24.00;;;21.50;;
66425;SDS011;53237;46.158;14.604;2023-01-19T08:51:15;23.63;;;20.42;;
66425;SDS011;53237;46.158;14.604;2023-01-19T08:53:41;22.25;;;19.60;;
66425;SDS011;53237;46.158;14.604;2023-01-19T08:56:08;22.77;;;20.38;;
66425;SDS011;53237;46.158;14.604;2023-01-19T08:58:37;21.23;;;19.02;;
66425;SDS011;53237;46.158;14.604;2023-01-19T09:01:03;20.27;;;18.08;;
66425;SDS011;53237;46.158;14.604;2023-01-19T09:03:29;21.70;;;19.20;;
66425;SDS011;53237;46.158;14.604;2023-01-19T09:05:55;19.52;;;17.35;;
66425;SDS011;53237;46.158;14.604;2023-01-19T09:08:21;22.17;;;18.48;;
66425;SDS011;53237;46.158;14.604;2023-01-19T09:10:48;21.02;;;18.77;;
66425;SDS011;53237;46.158;14.604;2023-01-19T09:13:14;20.83;;;18.52;;
66425;SDS011;53237;46.158;14.604;2023-01-19T09:15:41;20.48;;;18.27;;
66425;SDS011;53237;46.158;14.604;2023-01-19T09:18:14;20.58;;;18.33;;
66425;SDS011;53237;46.158;14.604;2023-01-19T09:20:41;21.25;;;19.00;;
66425;SDS011;53237;46.158;14.604;2023-01-19T09:23:08;20.65;;;17.95;;
66425;SDS011;53237;46.158;14.604;2023-01-19T09:25:35;20.52;;;18.35;;
66425;SDS011;53237;46.158;14.604;2023-01-19T09:28:01;20.05;;;17.92;;
66425;SDS011;53237;46.158;14.604;2023-01-19T09:30:27;19.88;;;17.38;;
66425;SDS011;53237;46.158;14.604;2023-01-19T09:32:53;18.77;;;16.63;;
66425;SDS011;53237;46.158;14.604;2023-01-19T09:35:19;17.15;;;15.45;;
66425;SDS011;53237;46.158;14.604;2023-01-19T09:37:46;19.15;;;17.02;;
66425;SDS011;53237;46.158;14.604;2023-01-19T09:40:11;17.80;;;16.00;;
66425;SDS011;53237;46.158;14.604;2023-01-19T09:45:04;17.38;;;15.50;;
66425;SDS011;53237;46.158;14.604;2023-01-19T09:47:31;17.63;;;15.82;;
66425;SDS011;53237;46.158;14.604;2023-01-19T09:50:00;19.25;;;16.35;;
66425;SDS011;53237;46.158;14.604;2023-01-19T09:52:28;17.90;;;15.98;;
66425;SDS011;53237;46.158;14.604;2023-01-19T09:54:56;17.02;;;15.23;;
66425;SDS011;53237;46.158;14.604;2023-01-19T09:57:23;15.95;;;14.25;;
66425;SDS011;53237;46.158;14.604;2023-01-19T09:59:49;18.92;;;16.95;;
66425;SDS011;53237;46.158;14.604;2023-01-19T10:03:16;21.63;;;19.33;;
66425;SDS011;53237;46.158;14.604;2023-01-19T10:07:40;28.02;;;25.13;;
66425;SDS011;53237;46.158;14.604;2023-01-19T10:20:15;29.10;;;25.52;;
66425;SDS011;53237;46.158;14.604;2023-01-19T10:22:41;18.52;;;15.85;;
66425;SDS011;53237;46.158;14.604;2023-01-19T10:25:12;17.73;;;15.93;;
66425;SDS011;53237;46.158;14.604;2023-01-19T10:27:40;16.25;;;14.65;;
66425;SDS011;53237;46.158;14.604;2023-01-19T10:30:07;18.00;;;16.20;;
66425;SDS011;53237;46.158;14.604;2023-01-19T10:32:34;8.35;;;7.38;;
66425;SDS011;53237;46.158;14.604;2023-01-19T10:35:00;15.35;;;13.57;;
66425;SDS011;53237;46.158;14.604;2023-01-19T10:37:31;9.32;;;8.32;;
66425;SDS011;53237;46.158;14.604;2023-01-19T10:42:36;9.95;;;8.38;;
66425;SDS011;53237;46.158;14.604;2023-01-19T10:45:03;12.85;;;11.55;;
66425;SDS011;53237;46.158;14.604;2023-01-19T10:47:39;12.30;;;11.10;;
66425;SDS011;53237;46.158;14.604;2023-01-19T10:50:27;9.68;;;8.77;;
66425;SDS011;53237;46.158;14.604;2023-01-19T10:52:56;11.20;;;10.00;;
66425;SDS011;53237;46.158;14.604;2023-01-19T10:55:40;7.25;;;6.68;;
66425;SDS011;53237;46.158;14.604;2023-01-19T11:00:49;11.20;;;9.95;;
66425;SDS011;53237;46.158;14.604;2023-01-19T11:05:48;10.45;;;9.38;;
66425;SDS011;53237;46.158;14.604;2023-01-19T11:08:21;11.18;;;9.10;;
66425;SDS011;53237;46.158;14.604;2023-01-19T11:10:51;10.50;;;9.48;;
66425;SDS011;53237;46.158;14.604;2023-01-19T11:13:17;9.93;;;8.93;;
66425;SDS011;53237;46.158;14.604;2023-01-19T11:15:47;9.68;;;8.48;;
66425;SDS011;53237;46.158;14.604;2023-01-19T11:18:22;8.32;;;7.50;;
66425;SDS011;53237;46.158;14.604;2023-01-19T11:20:49;8.48;;;7.63;;
66425;SDS011;53237;46.158;14.604;2023-01-19T11:25:46;6.95;;;6.25;;
66425;SDS011;53237;46.158;14.604;2023-01-19T11:28:20;7.32;;;6.63;;
66425;SDS011;53237;46.158;14.604;2023-01-19T11:31:15;6.63;;;5.95;;
66425;SDS011;53237;46.158;14.604;2023-01-19T11:33:49;6.22;;;5.63;;
66425;SDS011;53237;46.158;14.604;2023-01-19T11:36:17;6.13;;;5.40;;
66425;SDS011;53237;46.158;14.604;2023-01-19T11:38:45;6.38;;;5.75;;
66425;SDS011;53237;46.158;14.604;2023-01-19T11:43:41;5.45;;;4.95;;
66425;SDS011;53237;46.158;14.604;2023-01-19T11:46:08;5.78;;;5.18;;
66425;SDS011;53237;46.158;14.604;2023-01-19T11:48:38;6.57;;;5.70;;
66425;SDS011;53237;46.158;14.604;2023-01-19T11:51:08;6.30;;;5.70;;
66425;SDS011;53237;46.158;14.604;2023-01-19T11:53:35;6.05;;;5.45;;
66425;SDS011;53237;46.158;14.604;2023-01-19T11:56:03;7.03;;;6.22;;
66425;SDS011;53237;46.158;14.604;2023-01-19T11:58:32;6.75;;;6.05;;
66425;SDS011;53237;46.158;14.604;2023-01-19T12:01:06;5.85;;;5.35;;
66425;SDS011;53237;46.158;14.604;2023-01-19T12:06:05;6.50;;;5.90;;
66425;SDS011;53237;46.158;14.604;2023-01-19T12:08:36;6.93;;;6.22;;
66425;SDS011;53237;46.158;14.604;2023-01-19T12:13:30;7.35;;;6.68;;
66425;SDS011;53237;46.158;14.604;2023-01-19T12:16:03;6.25;;;5.65;;
66425;SDS011;53237;46.158;14.604;2023-01-19T12:18:32;6.35;;;5.75;;
66425;SDS011;53237;46.158;14.604;2023-01-19T12:21:00;7.45;;;6.68;;
66425;SDS011;53237;46.158;14.604;2023-01-19T12:28:38;7.53;;;6.40;;
66425;SDS011;53237;46.158;14.604;2023-01-19T12:31:05;6.78;;;6.05;;
66425;SDS011;53237;46.158;14.604;2023-01-19T12:33:33;11.15;;;8.82;;
66425;SDS011;53237;46.158;14.604;2023-01-19T12:43:42;7.95;;;7.22;;
66425;SDS011;53237;46.158;14.604;2023-01-19T12:46:27;6.20;;;5.60;;
66425;SDS011;53237;46.158;14.604;2023-01-19T12:48:55;6.45;;;5.85;;
66425;SDS011;53237;46.158;14.604;2023-01-19T12:51:28;6.40;;;5.80;;
66425;SDS011;53237;46.158;14.604;2023-01-19T12:53:55;6.25;;;5.65;;
66425;SDS011;53237;46.158;14.604;2023-01-19T12:56:32;6.28;;;5.68;;
66425;SDS011;53237;46.158;14.604;2023-01-19T12:58:59;7.82;;;6.63;;
66425;SDS011;53237;46.158;14.604;2023-01-19T13:01:25;13.45;;;12.05;;
66425;SDS011;53237;46.158;14.604;2023-01-19T13:04:04;8.57;;;7.72;;
66425;SDS011;53237;46.158;14.604;2023-01-19T13:07:15;7.72;;;6.93;;
66425;SDS011;53237;46.158;14.604;2023-01-19T13:09:32;6.82;;;6.15;;
66425;SDS011;53237;46.158;14.604;2023-01-19T13:14:42;13.45;;;11.52;;
66425;SDS011;53237;46.158;14.604;2023-01-19T13:17:28;7.15;;;6.47;;
66425;SDS011;53237;46.158;14.604;2023-01-19T13:20:00;13.27;;;11.88;;
66425;SDS011;53237;46.158;14.604;2023-01-19T13:22:47;96.15;;;71.82;;
66425;SDS011;53237;46.158;14.604;2023-01-19T13:25:20;18.88;;;16.17;;
66425;SDS011;53237;46.158;14.604;2023-01-19T13:27:48;14.98;;;13.35;;
66425;SDS011;53237;46.158;14.604;2023-01-19T13:30:23;14.38;;;12.88;;
66425;SDS011;53237;46.158;14.604;2023-01-19T13:32:51;24.60;;;20.17;;
66425;SDS011;53237;46.158;14.604;2023-01-19T13:35:17;17.08;;;15.27;;
66425;SDS011;53237;46.158;14.604;2023-01-19T13:37:44;15.50;;;13.90;;
66425;SDS011;53237;46.158;14.604;2023-01-19T13:40:24;18.33;;;16.55;;
66425;SDS011;53237;46.158;14.604;2023-01-19T13:42:51;15.38;;;13.77;;
66425;SDS011;53237;46.158;14.604;2023-01-19T13:45:36;14.52;;;12.38;;
66425;SDS011;53237;46.158;14.604;2023-01-19T13:48:04;13.73;;;12.00;;
66425;SDS011;53237;46.158;14.604;2023-01-19T13:50:32;13.75;;;12.35;;
66425;SDS011;53237;46.158;14.604;2023-01-19T13:52:58;17.98;;;16.02;;
66425;SDS011;53237;46.158;14.604;2023-01-19T13:55:26;13.68;;;12.27;;
66425;SDS011;53237;46.158;14.604;2023-01-19T13:57:52;14.88;;;13.00;;
66425;SDS011;53237;46.158;14.604;2023-01-19T14:00:23;13.00;;;11.65;;
66425;SDS011;53237;46.158;14.604;2023-01-19T14:02:56;12.82;;;11.48;;
66425;SDS011;53237;46.158;14.604;2023-01-19T14:05:27;13.02;;;11.38;;
66425;SDS011;53237;46.158;14.604;2023-01-19T14:10:36;12.20;;;10.82;;
66425;SDS011;53237;46.158;14.604;2023-01-19T14:13:04;15.32;;;13.07;;
66425;SDS011;53237;46.158;14.604;2023-01-19T14:15:33;13.23;;;11.45;;
66425;SDS011;53237;46.158;14.604;2023-01-19T14:18:09;13.65;;;12.00;;
66425;SDS011;53237;46.158;14.604;2023-01-19T14:20:35;11.40;;;10.18;;
66425;SDS011;53237;46.158;14.604;2023-01-19T14:23:02;12.35;;;10.57;;
66425;SDS011;53237;46.158;14.604;2023-01-19T14:30:39;11.55;;;10.35;;
66425;SDS011;53237;46.158;14.604;2023-01-19T14:33:05;12.25;;;10.82;;
66425;SDS011;53237;46.158;14.604;2023-01-19T14:35:36;12.23;;;10.55;;
66425;SDS011;53237;46.158;14.604;2023-01-19T14:38:02;11.75;;;9.90;;
66425;SDS011;53237;46.158;14.604;2023-01-19T14:40:28;12.48;;;11.20;;
66425;SDS011;53237;46.158;14.604;2023-01-19T14:42:58;33.95;;;25.38;;
66425;SDS011;53237;46.158;14.604;2023-01-19T14:47:53;22.42;;;17.30;;
66425;SDS011;53237;46.158;14.604;2023-01-19T14:50:21;16.17;;;13.23;;
66425;SDS011;53237;46.158;14.604;2023-01-19T14:52:58;15.88;;;12.90;;
66425;SDS011;53237;46.158;14.604;2023-01-19T14:58:10;15.75;;;12.63;;
66425;SDS011;53237;46.158;14.604;2023-01-19T15:00:36;15.00;;;13.13;;
66425;SDS011;53237;46.158;14.604;2023-01-19T15:03:03;17.58;;;13.73;;
66425;SDS011;53237;46.158;14.604;2023-01-19T15:05:30;13.32;;;11.65;;
66425;SDS011;53237;46.158;14.604;2023-01-19T15:07:56;13.95;;;11.85;;
66425;SDS011;53237;46.158;14.604;2023-01-19T15:10:22;16.75;;;12.95;;
66425;SDS011;53237;46.158;14.604;2023-01-19T15:12:48;14.98;;;13.38;;
66425;SDS011;53237;46.158;14.604;2023-01-19T15:15:15;15.25;;;11.90;;
66425;SDS011;53237;46.158;14.604;2023-01-19T15:17:42;14.45;;;12.55;;
66425;SDS011;53237;46.158;14.604;2023-01-19T15:20:15;14.20;;;12.63;;
66425;SDS011;53237;46.158;14.604;2023-01-19T15:22:42;14.48;;;12.90;;
66425;SDS011;53237;46.158;14.604;2023-01-19T15:25:12;16.05;;;13.38;;
66425;SDS011;53237;46.158;14.604;2023-01-19T15:27:38;15.77;;;13.65;;
66425;SDS011;53237;46.158;14.604;2023-01-19T15:30:11;15.02;;;13.43;;
66425;SDS011;53237;46.158;14.604;2023-01-19T15:32:37;16.27;;;14.13;;
66425;SDS011;53237;46.158;14.604;2023-01-19T15:35:14;17.63;;;15.52;;
66425;SDS011;53237;46.158;14.604;2023-01-19T15:37:40;19.05;;;16.60;;
66425;SDS011;53237;46.158;14.604;2023-01-19T15:40:07;22.20;;;19.50;;